sensor_id;sensor_type;location;lat;lon;timestamp;temperature;humidity
75262;DHT22;63859;51.064;4.580;2024-01-16T00:00:51;1.40;99.90
75262;DHT22;63859;51.064;4.580;2024-01-16T00:03:17;1.40;99.90
75262;DHT22;63859;51.064;4.580;2024-01-16T00:05:42;1.30;99.90
75262;DHT22;63859;51.064;4.580;2024-01-16T00:08:08;1.30;99.90
75262;DHT22;63859;51.064;4.580;2024-01-16T00:10:34;1.30;99.90
75262;DHT22;63859;51.064;4.580;2024-01-16T00:12:59;1.30;99.90
75262;DHT22;63859;51.064;4.580;2024-01-16T00:15:25;1.30;99.90
75262;DHT22;63859;51.064;4.580;2024-01-16T00:17:51;1.30;99.90
75262;DHT22;63859;51.064;4.580;2024-01-16T00:20:17;1.30;99.90
75262;DHT22;63859;51.064;4.580;2024-01-16T00:22:42;1.30;99.90
75262;DHT22;63859;51.064;4.580;2024-01-16T00:25:08;1.30;99.90
75262;DHT22;63859;51.064;4.580;2024-01-16T00:27:34;1.30;99.90
75262;DHT22;63859;51.064;4.580;2024-01-16T00:32:25;1.30;99.90
75262;DHT22;63859;51.064;4.580;2024-01-16T00:34:51;1.30;99.90
75262;DHT22;63859;51.064;4.580;2024-01-16T00:37:17;1.30;99.90
75262;DHT22;63859;51.064;4.580;2024-01-16T00:39:42;1.20;99.90
75262;DHT22;63859;51.064;4.580;2024-01-16T00:42:08;1.20;99.90
75262;DHT22;63859;51.064;4.580;2024-01-16T00:44:34;1.20;99.90
75262;DHT22;63859;51.064;4.580;2024-01-16T00:47:00;1.20;99.90
75262;DHT22;63859;51.064;4.580;2024-01-16T00:49:27;1.20;99.90
75262;DHT22;63859;51.064;4.580;2024-01-16T00:51:53;1.20;99.90
75262;DHT22;63859;51.064;4.580;2024-01-16T00:54:19;1.20;99.90
75262;DHT22;63859;51.064;4.580;2024-01-16T00:56:45;1.20;99.90
75262;DHT22;63859;51.064;4.580;2024-01-16T00:59:11;1.20;99.90
75262;DHT22;63859;51.064;4.580;2024-01-16T01:01:39;1.20;99.90
75262;DHT22;63859;51.064;4.580;2024-01-16T01:04:05;1.20;99.90
75262;DHT22;63859;51.064;4.580;2024-01-16T01:06:30;1.10;99.90
75262;DHT22;63859;51.064;4.580;2024-01-16T01:08:56;1.20;99.90
75262;DHT22;63859;51.064;4.580;2024-01-16T01:11:22;1.10;99.90
75262;DHT22;63859;51.064;4.580;2024-01-16T01:13:48;1.10;99.90
75262;DHT22;63859;51.064;4.580;2024-01-16T01:16:13;1.10;99.90
75262;DHT22;63859;51.064;4.580;2024-01-16T01:18:39;1.10;99.90
75262;DHT22;63859;51.064;4.580;2024-01-16T01:21:04;1.20;99.90
75262;DHT22;63859;51.064;4.580;2024-01-16T01:23:30;1.10;99.90
75262;DHT22;63859;51.064;4.580;2024-01-16T01:25:56;1.10;99.90
75262;DHT22;63859;51.064;4.580;2024-01-16T01:28:22;1.00;99.90
75262;DHT22;63859;51.064;4.580;2024-01-16T01:30:47;1.00;99.90
75262;DHT22;63859;51.064;4.580;2024-01-16T01:33:13;1.00;99.90
75262;DHT22;63859;51.064;4.580;2024-01-16T01:35:39;1.00;99.90
75262;DHT22;63859;51.064;4.580;2024-01-16T01:38:04;0.90;99.90
75262;DHT22;63859;51.064;4.580;2024-01-16T01:40:32;0.90;99.90
75262;DHT22;63859;51.064;4.580;2024-01-16T01:42:57;0.90;99.90
75262;DHT22;63859;51.064;4.580;2024-01-16T01:45:23;0.80;99.90
75262;DHT22;63859;51.064;4.580;2024-01-16T01:47:49;0.80;99.90
75262;DHT22;63859;51.064;4.580;2024-01-16T01:50:15;0.80;99.90
75262;DHT22;63859;51.064;4.580;2024-01-16T01:52:41;0.80;99.90
75262;DHT22;63859;51.064;4.580;2024-01-16T01:55:10;0.70;99.90
75262;DHT22;63859;51.064;4.580;2024-01-16T01:57:37;0.70;99.90
75262;DHT22;63859;51.064;4.580;2024-01-16T02:00:03;0.60;99.90
75262;DHT22;63859;51.064;4.580;2024-01-16T02:02:31;0.60;99.90
75262;DHT22;63859;51.064;4.580;2024-01-16T02:04:57;0.60;99.90
75262;DHT22;63859;51.064;4.580;2024-01-16T02:07:23;0.60;99.90
75262;DHT22;63859;51.064;4.580;2024-01-16T02:09:50;0.60;99.90
75262;DHT22;63859;51.064;4.580;2024-01-16T02:12:16;0.50;99.90
75262;DHT22;63859;51.064;4.580;2024-01-16T02:14:42;0.50;99.90
75262;DHT22;63859;51.064;4.580;2024-01-16T02:17:08;0.40;99.90
75262;DHT22;63859;51.064;4.580;2024-01-16T02:22:00;0.40;99.90
75262;DHT22;63859;51.064;4.580;2024-01-16T02:24:29;0.40;99.90
75262;DHT22;63859;51.064;4.580;2024-01-16T02:26:55;0.60;99.90
75262;DHT22;63859;51.064;4.580;2024-01-16T02:29:20;0.40;99.90
75262;DHT22;63859;51.064;4.580;2024-01-16T02:31:46;0.40;99.90
75262;DHT22;63859;51.064;4.580;2024-01-16T02:34:12;0.40;99.90
75262;DHT22;63859;51.064;4.580;2024-01-16T02:36:38;0.30;99.90
75262;DHT22;63859;51.064;4.580;2024-01-16T02:39:04;0.30;99.90
75262;DHT22;63859;51.064;4.580;2024-01-16T02:41:31;0.30;99.90
75262;DHT22;63859;51.064;4.580;2024-01-16T02:43:57;0.20;99.90
75262;DHT22;63859;51.064;4.580;2024-01-16T02:46:23;0.20;99.90
75262;DHT22;63859;51.064;4.580;2024-01-16T02:48:49;0.20;99.90
75262;DHT22;63859;51.064;4.580;2024-01-16T02:51:14;0.20;99.90
75262;DHT22;63859;51.064;4.580;2024-01-16T02:53:41;0.20;99.90
75262;DHT22;63859;51.064;4.580;2024-01-16T02:56:08;0.20;99.90
75262;DHT22;63859;51.064;4.580;2024-01-16T02:58:35;0.20;99.90
75262;DHT22;63859;51.064;4.580;2024-01-16T03:01:00;0.20;99.90
75262;DHT22;63859;51.064;4.580;2024-01-16T03:03:27;0.20;99.90
75262;DHT22;63859;51.064;4.580;2024-01-16T03:05:52;0.20;99.90
75262;DHT22;63859;51.064;4.580;2024-01-16T03:10:44;0.10;99.90
75262;DHT22;63859;51.064;4.580;2024-01-16T03:13:10;0.10;99.90
75262;DHT22;63859;51.064;4.580;2024-01-16T03:15:36;0.10;99.90
75262;DHT22;63859;51.064;4.580;2024-01-16T03:20:28;0.10;99.90
75262;DHT22;63859;51.064;4.580;2024-01-16T03:22:54;0.00;99.90
75262;DHT22;63859;51.064;4.580;2024-01-16T03:25:20;0.10;99.90
75262;DHT22;63859;51.064;4.580;2024-01-16T03:27:47;0.00;99.90
75262;DHT22;63859;51.064;4.580;2024-01-16T03:30:13;0.20;99.90
75262;DHT22;63859;51.064;4.580;2024-01-16T03:32:38;0.00;99.90
75262;DHT22;63859;51.064;4.580;2024-01-16T03:35:05;0.00;99.90
75262;DHT22;63859;51.064;4.580;2024-01-16T03:37:31;0.00;99.90
75262;DHT22;63859;51.064;4.580;2024-01-16T03:39:57;0.00;99.90
75262;DHT22;63859;51.064;4.580;2024-01-16T03:42:23;0.00;99.90
75262;DHT22;63859;51.064;4.580;2024-01-16T03:44:49;0.20;99.90
75262;DHT22;63859;51.064;4.580;2024-01-16T03:52:07;-0.10;99.90
75262;DHT22;63859;51.064;4.580;2024-01-16T03:54:33;-0.10;99.90
75262;DHT22;63859;51.064;4.580;2024-01-16T03:56:59;0.00;99.90
75262;DHT22;63859;51.064;4.580;2024-01-16T03:59:24;-0.10;99.90
75262;DHT22;63859;51.064;4.580;2024-01-16T04:01:50;-0.10;99.90
75262;DHT22;63859;51.064;4.580;2024-01-16T04:06:42;-0.10;99.90
75262;DHT22;63859;51.064;4.580;2024-01-16T04:09:08;0.00;99.90
75262;DHT22;63859;51.064;4.580;2024-01-16T04:11:35;0.00;99.90
75262;DHT22;63859;51.064;4.580;2024-01-16T04:14:01;-0.10;99.90
75262;DHT22;63859;51.064;4.580;2024-01-16T04:16:27;-0.20;99.90
75262;DHT22;63859;51.064;4.580;2024-01-16T04:18:53;-0.20;99.90
75262;DHT22;63859;51.064;4.580;2024-01-16T04:21:19;-0.20;99.90
75262;DHT22;63859;51.064;4.580;2024-01-16T04:23:44;-0.20;99.90
75262;DHT22;63859;51.064;4.580;2024-01-16T04:26:10;-0.20;99.90
75262;DHT22;63859;51.064;4.580;2024-01-16T04:28:36;-0.20;99.90
75262;DHT22;63859;51.064;4.580;2024-01-16T04:31:05;-0.20;99.90
75262;DHT22;63859;51.064;4.580;2024-01-16T04:33:30;-0.20;99.90
75262;DHT22;63859;51.064;4.580;2024-01-16T04:35:56;-0.10;99.90
75262;DHT22;63859;51.064;4.580;2024-01-16T04:38:22;-0.30;99.90
75262;DHT22;63859;51.064;4.580;2024-01-16T04:40:48;-0.30;99.90
75262;DHT22;63859;51.064;4.580;2024-01-16T04:43:13;-0.30;99.90
75262;DHT22;63859;51.064;4.580;2024-01-16T04:45:39;-0.30;99.90
75262;DHT22;63859;51.064;4.580;2024-01-16T04:48:05;-0.30;99.90
75262;DHT22;63859;51.064;4.580;2024-01-16T04:50:30;-0.30;99.90
75262;DHT22;63859;51.064;4.580;2024-01-16T04:52:59;-0.30;99.90
75262;DHT22;63859;51.064;4.580;2024-01-16T04:55:29;-0.20;99.90
75262;DHT22;63859;51.064;4.580;2024-01-16T04:57:55;-0.40;99.90
75262;DHT22;63859;51.064;4.580;2024-01-16T05:00:21;-0.30;99.90
75262;DHT22;63859;51.064;4.580;2024-01-16T05:02:47;-0.40;99.90
75262;DHT22;63859;51.064;4.580;2024-01-16T05:05:13;-0.40;99.90
75262;DHT22;63859;51.064;4.580;2024-01-16T05:07:40;-0.40;99.90
75262;DHT22;63859;51.064;4.580;2024-01-16T05:10:06;-0.40;99.90
75262;DHT22;63859;51.064;4.580;2024-01-16T05:12:32;-0.40;99.90
75262;DHT22;63859;51.064;4.580;2024-01-16T05:14:58;-0.50;99.90
75262;DHT22;63859;51.064;4.580;2024-01-16T05:17:24;-0.50;99.90
75262;DHT22;63859;51.064;4.580;2024-01-16T05:19:49;-0.50;99.90
75262;DHT22;63859;51.064;4.580;2024-01-16T05:22:15;-0.50;99.90
75262;DHT22;63859;51.064;4.580;2024-01-16T05:24:41;-0.50;99.90
75262;DHT22;63859;51.064;4.580;2024-01-16T05:27:07;-0.60;99.90
75262;DHT22;63859;51.064;4.580;2024-01-16T05:29:32;-0.60;99.90
75262;DHT22;63859;51.064;4.580;2024-01-16T05:31:58;-0.60;99.90
75262;DHT22;63859;51.064;4.580;2024-01-16T05:34:24;-0.60;99.90
75262;DHT22;63859;51.064;4.580;2024-01-16T05:36:50;-0.60;99.90
75262;DHT22;63859;51.064;4.580;2024-01-16T05:39:15;-0.60;99.90
75262;DHT22;63859;51.064;4.580;2024-01-16T05:41:42;-0.60;99.90
75262;DHT22;63859;51.064;4.580;2024-01-16T05:44:08;-0.60;99.90
75262;DHT22;63859;51.064;4.580;2024-01-16T05:46:34;-0.50;99.90
75262;DHT22;63859;51.064;4.580;2024-01-16T05:48:59;-0.60;99.90
75262;DHT22;63859;51.064;4.580;2024-01-16T05:51:27;-0.60;99.90
75262;DHT22;63859;51.064;4.580;2024-01-16T05:53:54;-0.60;99.90
75262;DHT22;63859;51.064;4.580;2024-01-16T05:56:19;-0.70;99.90
75262;DHT22;63859;51.064;4.580;2024-01-16T05:58:45;-0.40;99.90
75262;DHT22;63859;51.064;4.580;2024-01-16T06:01:11;-0.60;99.90
75262;DHT22;63859;51.064;4.580;2024-01-16T06:03:39;-0.60;99.90
75262;DHT22;63859;51.064;4.580;2024-01-16T06:06:05;-0.60;99.90
75262;DHT22;63859;51.064;4.580;2024-01-16T06:08:31;-0.60;99.90
75262;DHT22;63859;51.064;4.580;2024-01-16T06:10:57;-0.70;99.90
75262;DHT22;63859;51.064;4.580;2024-01-16T06:13:22;-0.70;99.90
75262;DHT22;63859;51.064;4.580;2024-01-16T06:15:48;-0.70;99.90
75262;DHT22;63859;51.064;4.580;2024-01-16T06:18:14;-0.70;99.90
75262;DHT22;63859;51.064;4.580;2024-01-16T06:20:39;-0.80;99.90
75262;DHT22;63859;51.064;4.580;2024-01-16T06:23:05;-0.70;99.90
75262;DHT22;63859;51.064;4.580;2024-01-16T06:25:30;-0.60;99.90
75262;DHT22;63859;51.064;4.580;2024-01-16T06:27:56;-0.70;99.90
75262;DHT22;63859;51.064;4.580;2024-01-16T06:30:22;-0.70;99.90
75262;DHT22;63859;51.064;4.580;2024-01-16T06:32:49;-0.70;99.90
75262;DHT22;63859;51.064;4.580;2024-01-16T06:35:15;-0.60;99.90
75262;DHT22;63859;51.064;4.580;2024-01-16T06:37:41;-0.80;99.90
75262;DHT22;63859;51.064;4.580;2024-01-16T06:40:07;-0.80;99.90
75262;DHT22;63859;51.064;4.580;2024-01-16T06:42:33;-0.80;99.90
75262;DHT22;63859;51.064;4.580;2024-01-16T06:44:59;-0.60;99.90
75262;DHT22;63859;51.064;4.580;2024-01-16T06:47:24;-0.80;99.90
75262;DHT22;63859;51.064;4.580;2024-01-16T06:49:50;-0.70;99.90
75262;DHT22;63859;51.064;4.580;2024-01-16T06:52:16;-0.60;99.90
75262;DHT22;63859;51.064;4.580;2024-01-16T06:54:41;-0.70;99.90
75262;DHT22;63859;51.064;4.580;2024-01-16T06:57:07;-0.80;99.90
75262;DHT22;63859;51.064;4.580;2024-01-16T06:59:33;-0.90;99.90
75262;DHT22;63859;51.064;4.580;2024-01-16T07:01:59;-0.80;99.90
75262;DHT22;63859;51.064;4.580;2024-01-16T07:04:24;-0.70;99.90
75262;DHT22;63859;51.064;4.580;2024-01-16T07:06:50;-0.70;99.90
75262;DHT22;63859;51.064;4.580;2024-01-16T07:09:15;-0.70;99.90
75262;DHT22;63859;51.064;4.580;2024-01-16T07:11:43;-0.70;99.90
75262;DHT22;63859;51.064;4.580;2024-01-16T07:14:10;-0.70;99.90
75262;DHT22;63859;51.064;4.580;2024-01-16T07:16:35;-0.60;99.90
75262;DHT22;63859;51.064;4.580;2024-01-16T07:19:01;-0.60;99.90
75262;DHT22;63859;51.064;4.580;2024-01-16T07:21:27;-0.60;99.90
75262;DHT22;63859;51.064;4.580;2024-01-16T07:23:54;-0.70;99.90
75262;DHT22;63859;51.064;4.580;2024-01-16T07:26:19;-0.60;99.90
75262;DHT22;63859;51.064;4.580;2024-01-16T07:31:14;-0.60;99.90
75262;DHT22;63859;51.064;4.580;2024-01-16T07:33:40;-0.60;99.90
75262;DHT22;63859;51.064;4.580;2024-01-16T07:36:07;-0.60;99.90
75262;DHT22;63859;51.064;4.580;2024-01-16T07:38:33;-0.50;99.90
75262;DHT22;63859;51.064;4.580;2024-01-16T07:40:59;-0.50;99.90
75262;DHT22;63859;51.064;4.580;2024-01-16T07:45:50;-0.50;99.90
75262;DHT22;63859;51.064;4.580;2024-01-16T07:48:16;-0.50;99.90
75262;DHT22;63859;51.064;4.580;2024-01-16T07:50:42;-0.60;99.90
75262;DHT22;63859;51.064;4.580;2024-01-16T07:53:07;-0.50;99.90
75262;DHT22;63859;51.064;4.580;2024-01-16T07:55:33;-0.50;99.90
75262;DHT22;63859;51.064;4.580;2024-01-16T08:00:25;-0.50;99.90
75262;DHT22;63859;51.064;4.580;2024-01-16T08:02:52;-0.50;99.90
75262;DHT22;63859;51.064;4.580;2024-01-16T08:05:18;-0.50;99.90
75262;DHT22;63859;51.064;4.580;2024-01-16T08:07:47;-0.50;99.90
75262;DHT22;63859;51.064;4.580;2024-01-16T08:10:12;-0.50;99.90
75262;DHT22;63859;51.064;4.580;2024-01-16T08:12:38;-0.40;99.90
75262;DHT22;63859;51.064;4.580;2024-01-16T08:15:05;-0.40;99.90
75262;DHT22;63859;51.064;4.580;2024-01-16T08:17:33;-0.40;99.90
75262;DHT22;63859;51.064;4.580;2024-01-16T08:19:59;-0.40;99.90
75262;DHT22;63859;51.064;4.580;2024-01-16T08:22:25;-0.50;99.90
75262;DHT22;63859;51.064;4.580;2024-01-16T08:24:50;-0.40;99.90
75262;DHT22;63859;51.064;4.580;2024-01-16T08:27:16;-0.50;99.90
75262;DHT22;63859;51.064;4.580;2024-01-16T08:29:42;-0.50;99.90
75262;DHT22;63859;51.064;4.580;2024-01-16T08:32:08;-0.40;99.90
75262;DHT22;63859;51.064;4.580;2024-01-16T08:34:34;-0.40;99.90
75262;DHT22;63859;51.064;4.580;2024-01-16T08:36:59;-0.30;99.90
75262;DHT22;63859;51.064;4.580;2024-01-16T08:39:25;-0.40;99.90
75262;DHT22;63859;51.064;4.580;2024-01-16T08:41:54;-0.40;99.90
75262;DHT22;63859;51.064;4.580;2024-01-16T08:44:19;-0.30;99.90
75262;DHT22;63859;51.064;4.580;2024-01-16T08:46:45;-0.30;99.90
75262;DHT22;63859;51.064;4.580;2024-01-16T08:49:11;-0.30;99.90
75262;DHT22;63859;51.064;4.580;2024-01-16T08:51:39;-0.30;99.90
75262;DHT22;63859;51.064;4.580;2024-01-16T08:54:06;-0.30;99.90
75262;DHT22;63859;51.064;4.580;2024-01-16T08:56:32;-0.20;99.90
75262;DHT22;63859;51.064;4.580;2024-01-16T08:58:58;-0.20;99.90
75262;DHT22;63859;51.064;4.580;2024-01-16T09:01:23;-0.20;99.90
75262;DHT22;63859;51.064;4.580;2024-01-16T09:03:49;0.00;99.90
75262;DHT22;63859;51.064;4.580;2024-01-16T09:06:15;-0.20;99.90
75262;DHT22;63859;51.064;4.580;2024-01-16T09:08:41;-0.20;99.90
75262;DHT22;63859;51.064;4.580;2024-01-16T09:11:07;-0.10;99.90
75262;DHT22;63859;51.064;4.580;2024-01-16T09:13:32;-0.20;99.90
75262;DHT22;63859;51.064;4.580;2024-01-16T09:15:59;-0.20;99.90
75262;DHT22;63859;51.064;4.580;2024-01-16T09:18:24;-0.20;99.90
75262;DHT22;63859;51.064;4.580;2024-01-16T09:20:50;-0.20;99.90
75262;DHT22;63859;51.064;4.580;2024-01-16T09:23:16;-0.10;99.90
75262;DHT22;63859;51.064;4.580;2024-01-16T09:25:41;-0.10;99.90
75262;DHT22;63859;51.064;4.580;2024-01-16T09:28:07;0.10;99.90
75262;DHT22;63859;51.064;4.580;2024-01-16T09:30:33;-0.10;99.90
75262;DHT22;63859;51.064;4.580;2024-01-16T09:32:59;0.00;99.90
75262;DHT22;63859;51.064;4.580;2024-01-16T09:35:24;0.00;99.90
75262;DHT22;63859;51.064;4.580;2024-01-16T09:37:50;0.10;99.90
75262;DHT22;63859;51.064;4.580;2024-01-16T09:40:16;0.10;99.90
75262;DHT22;63859;51.064;4.580;2024-01-16T09:42:42;0.10;99.90
75262;DHT22;63859;51.064;4.580;2024-01-16T09:45:09;0.20;99.90
75262;DHT22;63859;51.064;4.580;2024-01-16T09:47:34;0.20;99.90
75262;DHT22;63859;51.064;4.580;2024-01-16T09:50:02;0.30;99.90
75262;DHT22;63859;51.064;4.580;2024-01-16T09:52:29;0.30;99.90
75262;DHT22;63859;51.064;4.580;2024-01-16T09:54:55;0.30;99.90
75262;DHT22;63859;51.064;4.580;2024-01-16T09:57:25;0.30;99.90
75262;DHT22;63859;51.064;4.580;2024-01-16T09:59:52;0.30;99.90
75262;DHT22;63859;51.064;4.580;2024-01-16T10:02:19;0.30;99.90
75262;DHT22;63859;51.064;4.580;2024-01-16T10:04:46;0.30;99.90
75262;DHT22;63859;51.064;4.580;2024-01-16T10:07:12;0.40;99.90
75262;DHT22;63859;51.064;4.580;2024-01-16T10:09:39;0.40;99.90
75262;DHT22;63859;51.064;4.580;2024-01-16T10:12:06;0.40;99.90
75262;DHT22;63859;51.064;4.580;2024-01-16T10:14:33;0.40;99.90
75262;DHT22;63859;51.064;4.580;2024-01-16T10:17:03;0.40;99.90
75262;DHT22;63859;51.064;4.580;2024-01-16T10:19:31;0.50;99.90
75262;DHT22;63859;51.064;4.580;2024-01-16T10:22:04;0.50;99.90
75262;DHT22;63859;51.064;4.580;2024-01-16T10:24:30;0.50;99.90
75262;DHT22;63859;51.064;4.580;2024-01-16T10:27:00;0.50;99.90
75262;DHT22;63859;51.064;4.580;2024-01-16T10:29:26;0.40;99.90
75262;DHT22;63859;51.064;4.580;2024-01-16T10:31:52;0.50;99.90
75262;DHT22;63859;51.064;4.580;2024-01-16T10:34:22;0.50;99.90
75262;DHT22;63859;51.064;4.580;2024-01-16T10:36:50;0.50;99.90
75262;DHT22;63859;51.064;4.580;2024-01-16T10:39:16;0.60;99.90
75262;DHT22;63859;51.064;4.580;2024-01-16T10:41:42;0.60;99.90
75262;DHT22;63859;51.064;4.580;2024-01-16T10:44:18;0.70;99.90
75262;DHT22;63859;51.064;4.580;2024-01-16T10:46:44;0.60;99.90
75262;DHT22;63859;51.064;4.580;2024-01-16T10:49:10;0.60;99.90
75262;DHT22;63859;51.064;4.580;2024-01-16T10:51:35;0.70;99.90
75262;DHT22;63859;51.064;4.580;2024-01-16T10:54:05;0.70;99.90
75262;DHT22;63859;51.064;4.580;2024-01-16T10:56:37;0.80;99.90
75262;DHT22;63859;51.064;4.580;2024-01-16T10:59:08;0.80;99.90
75262;DHT22;63859;51.064;4.580;2024-01-16T11:01:37;0.80;99.90
75262;DHT22;63859;51.064;4.580;2024-01-16T11:04:04;0.90;99.90
75262;DHT22;63859;51.064;4.580;2024-01-16T11:06:30;0.90;99.90
75262;DHT22;63859;51.064;4.580;2024-01-16T11:08:57;0.90;99.90
75262;DHT22;63859;51.064;4.580;2024-01-16T11:11:24;0.90;99.90
75262;DHT22;63859;51.064;4.580;2024-01-16T11:13:51;1.00;99.90
75262;DHT22;63859;51.064;4.580;2024-01-16T11:16:18;1.00;99.90
75262;DHT22;63859;51.064;4.580;2024-01-16T11:18:45;1.00;99.90
75262;DHT22;63859;51.064;4.580;2024-01-16T11:21:12;1.10;99.90
75262;DHT22;63859;51.064;4.580;2024-01-16T11:23:39;1.10;99.90
75262;DHT22;63859;51.064;4.580;2024-01-16T11:26:26;1.20;99.90
75262;DHT22;63859;51.064;4.580;2024-01-16T11:28:58;1.20;99.90
75262;DHT22;63859;51.064;4.580;2024-01-16T11:33:53;1.30;99.90
75262;DHT22;63859;51.064;4.580;2024-01-16T11:36:52;1.30;99.90
75262;DHT22;63859;51.064;4.580;2024-01-16T11:39:23;1.40;99.90
75262;DHT22;63859;51.064;4.580;2024-01-16T11:41:51;1.50;99.90
75262;DHT22;63859;51.064;4.580;2024-01-16T11:44:43;1.60;99.90
75262;DHT22;63859;51.064;4.580;2024-01-16T11:47:23;1.60;99.90
75262;DHT22;63859;51.064;4.580;2024-01-16T11:49:50;1.70;99.90
75262;DHT22;63859;51.064;4.580;2024-01-16T12:00:36;2.00;99.90
75262;DHT22;63859;51.064;4.580;2024-01-16T12:03:06;2.10;99.90
75262;DHT22;63859;51.064;4.580;2024-01-16T12:07:58;2.40;99.90
75262;DHT22;63859;51.064;4.580;2024-01-16T12:10:24;2.60;99.90
75262;DHT22;63859;51.064;4.580;2024-01-16T12:12:51;2.70;99.90
75262;DHT22;63859;51.064;4.580;2024-01-16T12:15:21;2.90;99.90
75262;DHT22;63859;51.064;4.580;2024-01-16T12:17:58;3.10;99.90
75262;DHT22;63859;51.064;4.580;2024-01-16T12:20:32;3.20;99.90
75262;DHT22;63859;51.064;4.580;2024-01-16T12:23:06;3.40;99.90
75262;DHT22;63859;51.064;4.580;2024-01-16T12:25:36;3.60;99.90
75262;DHT22;63859;51.064;4.580;2024-01-16T12:28:05;3.70;99.90
75262;DHT22;63859;51.064;4.580;2024-01-16T12:30:33;3.80;99.90
75262;DHT22;63859;51.064;4.580;2024-01-16T12:33:07;3.90;99.90
75262;DHT22;63859;51.064;4.580;2024-01-16T12:35:45;4.00;99.90
75262;DHT22;63859;51.064;4.580;2024-01-16T12:38:12;4.10;99.90
75262;DHT22;63859;51.064;4.580;2024-01-16T12:40:44;4.20;99.90
75262;DHT22;63859;51.064;4.580;2024-01-16T12:43:10;4.30;99.90
75262;DHT22;63859;51.064;4.580;2024-01-16T12:45:36;4.40;99.90
75262;DHT22;63859;51.064;4.580;2024-01-16T12:48:02;4.60;99.90
75262;DHT22;63859;51.064;4.580;2024-01-16T12:50:32;4.50;99.90
75262;DHT22;63859;51.064;4.580;2024-01-16T12:53:09;4.50;99.90
75262;DHT22;63859;51.064;4.580;2024-01-16T12:55:39;4.60;99.90
75262;DHT22;63859;51.064;4.580;2024-01-16T12:58:23;4.70;99.90
75262;DHT22;63859;51.064;4.580;2024-01-16T13:00:51;4.70;99.90
75262;DHT22;63859;51.064;4.580;2024-01-16T13:03:20;4.80;99.90
75262;DHT22;63859;51.064;4.580;2024-01-16T13:06:03;4.80;99.90
75262;DHT22;63859;51.064;4.580;2024-01-16T13:08:29;4.80;99.90
75262;DHT22;63859;51.064;4.580;2024-01-16T13:11:03;4.80;99.90
75262;DHT22;63859;51.064;4.580;2024-01-16T13:13:29;5.10;99.90
75262;DHT22;63859;51.064;4.580;2024-01-16T13:15:56;5.30;99.90
75262;DHT22;63859;51.064;4.580;2024-01-16T13:18:24;5.30;99.90
75262;DHT22;63859;51.064;4.580;2024-01-16T13:20:50;5.30;99.90
75262;DHT22;63859;51.064;4.580;2024-01-16T13:23:17;5.30;99.90
75262;DHT22;63859;51.064;4.580;2024-01-16T13:25:43;5.40;99.90
75262;DHT22;63859;51.064;4.580;2024-01-16T13:28:16;5.50;99.90
75262;DHT22;63859;51.064;4.580;2024-01-16T13:30:42;5.60;99.90
75262;DHT22;63859;51.064;4.580;2024-01-16T13:33:09;5.70;99.90
75262;DHT22;63859;51.064;4.580;2024-01-16T13:35:37;5.70;99.90
75262;DHT22;63859;51.064;4.580;2024-01-16T13:38:03;5.60;99.90
75262;DHT22;63859;51.064;4.580;2024-01-16T13:40:30;5.50;99.90
75262;DHT22;63859;51.064;4.580;2024-01-16T13:42:55;5.50;99.90
75262;DHT22;63859;51.064;4.580;2024-01-16T13:45:23;5.70;99.90
75262;DHT22;63859;51.064;4.580;2024-01-16T13:47:48;5.70;99.90
75262;DHT22;63859;51.064;4.580;2024-01-16T13:50:14;5.50;99.90
75262;DHT22;63859;51.064;4.580;2024-01-16T13:52:40;4.90;99.90
75262;DHT22;63859;51.064;4.580;2024-01-16T13:55:07;4.30;99.90
75262;DHT22;63859;51.064;4.580;2024-01-16T13:57:33;4.00;99.90
75262;DHT22;63859;51.064;4.580;2024-01-16T14:00:06;4.00;99.90
75262;DHT22;63859;51.064;4.580;2024-01-16T14:02:32;4.20;99.90
75262;DHT22;63859;51.064;4.580;2024-01-16T14:05:00;4.40;99.90
75262;DHT22;63859;51.064;4.580;2024-01-16T14:07:26;4.50;99.90
75262;DHT22;63859;51.064;4.580;2024-01-16T14:09:51;4.70;99.90
75262;DHT22;63859;51.064;4.580;2024-01-16T14:12:17;4.90;99.90
75262;DHT22;63859;51.064;4.580;2024-01-16T14:14:44;4.90;99.90
75262;DHT22;63859;51.064;4.580;2024-01-16T14:17:10;5.00;99.90
75262;DHT22;63859;51.064;4.580;2024-01-16T14:19:37;5.00;99.90
75262;DHT22;63859;51.064;4.580;2024-01-16T14:22:04;4.80;99.90
75262;DHT22;63859;51.064;4.580;2024-01-16T14:24:30;4.70;99.90
75262;DHT22;63859;51.064;4.580;2024-01-16T14:26:55;4.40;99.90
75262;DHT22;63859;51.064;4.580;2024-01-16T14:29:24;4.20;99.90
75262;DHT22;63859;51.064;4.580;2024-01-16T14:31:51;3.90;99.90
75262;DHT22;63859;51.064;4.580;2024-01-16T14:34:16;3.60;99.90
75262;DHT22;63859;51.064;4.580;2024-01-16T14:36:43;3.50;99.90
75262;DHT22;63859;51.064;4.580;2024-01-16T14:39:09;3.40;99.90
75262;DHT22;63859;51.064;4.580;2024-01-16T14:44:09;3.20;99.90
75262;DHT22;63859;51.064;4.580;2024-01-16T14:46:35;3.10;99.90
75262;DHT22;63859;51.064;4.580;2024-01-16T14:49:01;3.10;99.90
75262;DHT22;63859;51.064;4.580;2024-01-16T14:51:27;3.00;99.90
75262;DHT22;63859;51.064;4.580;2024-01-16T14:53:53;2.90;99.90
75262;DHT22;63859;51.064;4.580;2024-01-16T14:56:19;2.90;99.90
75262;DHT22;63859;51.064;4.580;2024-01-16T14:58:45;2.80;99.90
75262;DHT22;63859;51.064;4.580;2024-01-16T15:01:11;2.80;99.90
75262;DHT22;63859;51.064;4.580;2024-01-16T15:03:37;2.70;99.90
75262;DHT22;63859;51.064;4.580;2024-01-16T15:06:04;2.70;99.90
75262;DHT22;63859;51.064;4.580;2024-01-16T15:08:30;2.70;99.90
75262;DHT22;63859;51.064;4.580;2024-01-16T15:10:58;2.70;99.90
75262;DHT22;63859;51.064;4.580;2024-01-16T15:13:26;2.70;99.90
75262;DHT22;63859;51.064;4.580;2024-01-16T15:15:52;2.60;99.90
75262;DHT22;63859;51.064;4.580;2024-01-16T15:18:20;2.60;99.90
75262;DHT22;63859;51.064;4.580;2024-01-16T15:20:46;2.50;99.90
75262;DHT22;63859;51.064;4.580;2024-01-16T15:23:12;2.50;99.90
75262;DHT22;63859;51.064;4.580;2024-01-16T15:28:04;2.40;99.90
75262;DHT22;63859;51.064;4.580;2024-01-16T15:30:30;2.30;99.90
75262;DHT22;63859;51.064;4.580;2024-01-16T15:33:01;2.30;99.90
75262;DHT22;63859;51.064;4.580;2024-01-16T15:35:28;2.20;99.90
75262;DHT22;63859;51.064;4.580;2024-01-16T15:37:54;2.20;99.90
75262;DHT22;63859;51.064;4.580;2024-01-16T15:40:20;2.20;99.90
75262;DHT22;63859;51.064;4.580;2024-01-16T15:42:45;2.20;99.90
75262;DHT22;63859;51.064;4.580;2024-01-16T15:45:11;2.20;99.90
75262;DHT22;63859;51.064;4.580;2024-01-16T15:47:37;2.10;99.90
75262;DHT22;63859;51.064;4.580;2024-01-16T15:50:04;2.10;99.90
75262;DHT22;63859;51.064;4.580;2024-01-16T15:52:32;2.00;99.90
75262;DHT22;63859;51.064;4.580;2024-01-16T15:54:59;1.90;99.90
75262;DHT22;63859;51.064;4.580;2024-01-16T15:57:24;1.90;99.90
75262;DHT22;63859;51.064;4.580;2024-01-16T15:59:50;1.90;99.90
75262;DHT22;63859;51.064;4.580;2024-01-16T16:02:15;1.80;99.90
75262;DHT22;63859;51.064;4.580;2024-01-16T16:04:41;1.80;99.90
75262;DHT22;63859;51.064;4.580;2024-01-16T16:07:07;1.80;99.90
75262;DHT22;63859;51.064;4.580;2024-01-16T16:09:33;1.70;99.90
75262;DHT22;63859;51.064;4.580;2024-01-16T16:12:01;1.70;99.90
75262;DHT22;63859;51.064;4.580;2024-01-16T16:14:28;1.70;99.90
75262;DHT22;63859;51.064;4.580;2024-01-16T16:16:56;1.60;99.90
75262;DHT22;63859;51.064;4.580;2024-01-16T16:19:30;1.60;99.90